Val Marie Southeast, Canada
Current Conditions -  °F | °C
As of 1:53 PM on Tuesday 21 Oct 2014 (Local Time) from KGGW Reporting Station
Clear Clear  
Wind Chill: 72°   Ceiling: Unl
Heat Index: 72°   Visibility: 10mi
Dew Point: 45°   Wind: 10mph
Humidity: 38%   Direction: 130°SE
Pressure: 29.56"   Gusts: NA
Location:  49.07°N, 107.58°W
Report Text: KGGW 211953Z AUTO 13009KT 10SM CLR 22/07 A2956 RMK AO2 SLP008 T02220072
Loading
Personal Weather Stations






























Interactive Weather Map
Tropical Storm Tracking
New forecast layout! Learn more

10-Day Weather Forecast

Advertisements
Track Severe Weather on mobile